Time;durP1;ratioP1;P1;durP2;ratioP2;P2;SDS_P1;SDS_P2;PMS_P1;PMS_P2;Temp;Humidity;BMP_temperature;BMP_pressure;BME280_temperature;BME280_humidity;BME280_pressure;Samples;Min_cycle;Max_cycle;Signal;HPM_P1;HPM_P2
2022/10/19 00:01:07;;;;;;;8.15;2.25;;;9.80;99.90;;;;;;5053548;28;20083;-66
2022/10/19 00:03:35;;;;;;;8.52;2.30;;;9.90;99.90;;;;;;5053120;28;20048;-66
2022/10/19 00:06:10;;;;;;;7.82;2.30;;;9.60;99.90;;;;;;5053477;28;20428;-66
2022/10/19 00:08:36;;;;;;;13.00;2.50;;;9.60;99.90;;;;;;5052944;28;20469;-67
2022/10/19 00:11:02;;;;;;;8.82;2.35;;;;;;;;;;5052983;28;20037;-67
2022/10/19 00:13:32;;;;;;;8.30;2.30;;;;;;;;;;5053164;28;20075;-67
2022/10/19 00:15:58;;;;;;;15.05;2.22;;;9.40;99.90;;;;;;5053207;28;20044;-66
2022/10/19 00:18:23;;;;;;;8.80;2.28;;;9.30;99.90;;;;;;5052994;28;20037;-67
2022/10/19 00:20:49;;;;;;;10.15;2.22;;;9.00;99.90;;;;;;5053426;28;20123;-67
2022/10/19 00:23:21;;;;;;;14.02;2.60;;;9.30;99.90;;;;;;5053049;28;20068;-67
2022/10/19 00:25:55;;;;;;;6.68;2.20;;;9.10;99.90;;;;;;5052967;28;20481;-67
2022/10/19 00:28:20;;;;;;;13.57;2.22;;;9.00;99.90;;;;;;5052938;28;20400;-66
2022/10/19 00:30:47;;;;;;;6.40;2.22;;;8.80;99.90;;;;;;5051495;28;20057;-66
2022/10/19 00:33:19;;;;;;;7.80;2.40;;;;;;;;;;5052780;28;20560;-66
2022/10/19 00:35:49;;;;;;;5.53;2.10;;;8.90;99.90;;;;;;5053024;28;20052;-66
2022/10/19 00:38:21;;;;;;;9.85;2.20;;;8.80;99.90;;;;;;5052621;28;20044;-66
2022/10/19 00:40:48;;;;;;;8.32;2.20;;;8.70;99.90;;;;;;5052227;28;20234;-66
2022/10/19 00:43:16;;;;;;;7.22;2.50;;;8.30;99.90;;;;;;5051864;28;20037;-66
2022/10/19 00:45:43;;;;;;;9.85;2.60;;;8.60;99.90;;;;;;5055796;28;20496;-66
2022/10/19 00:48:22;;;;;;;9.05;2.40;;;8.60;99.90;;;;;;5056537;28;20120;-66
2022/10/19 00:50:49;;;;;;;9.63;2.22;;;8.80;99.90;;;;;;5056789;28;20040;-66
2022/10/19 00:53:16;;;;;;;12.80;2.83;;;8.70;99.90;;;;;;5056593;28;20124;-65
2022/10/19 00:55:42;;;;;;;10.43;2.63;;;8.50;99.90;;;;;;5056569;28;20115;-66
2022/10/19 00:58:08;;;;;;;7.97;2.75;;;8.50;99.90;;;;;;5055050;28;20052;-66
2022/10/19 01:00:36;;;;;;;8.05;2.58;;;8.70;99.90;;;;;;5056563;28;20488;-66
2022/10/19 01:03:02;;;;;;;9.10;2.47;;;8.00;99.90;;;;;;5056475;28;20106;-66
2022/10/19 01:05:33;;;;;;;10.05;2.60;;;8.50;99.90;;;;;;5056345;28;20083;-66
2022/10/19 01:08:10;;;;;;;5.93;2.50;;;8.40;99.90;;;;;;5055706;28;20049;-66
2022/10/19 01:11:00;;;;;;;16.67;2.47;;;8.40;99.90;;;;;;5056255;28;20036;-66
2022/10/19 01:13:45;;;;;;;10.07;2.97;;;8.70;99.90;;;;;;5056333;28;20122;-66
2022/10/19 01:16:46;;;;;;;12.27;2.58;;;9.20;99.90;;;;;;5056234;28;20041;-66
2022/10/19 01:19:50;;;;;;;10.43;3.00;;;8.50;99.90;;;;;;5055918;28;20156;-66
2022/10/19 01:22:40;;;;;;;10.30;2.70;;;9.60;99.90;;;;;;5054738;28;20102;-66
2022/10/19 01:25:22;;;;;;;9.60;2.40;;;8.00;99.90;;;;;;5056079;28;20424;-66
2022/10/19 01:28:02;;;;;;;11.82;2.45;;;8.80;99.90;;;;;;5055927;28;20049;-66
2022/10/19 01:30:50;;;;;;;15.00;3.05;;;8.60;99.90;;;;;;5055813;28;20448;-66
2022/10/19 01:33:39;;;;;;;6.13;2.70;;;8.70;99.90;;;;;;5055790;28;20430;-60
2022/10/19 01:36:21;;;;;;;14.32;3.33;;;8.80;99.90;;;;;;5055885;28;20552;-60
2022/10/19 01:39:02;;;;;;;7.22;2.88;;;8.80;99.90;;;;;;5055696;28;20487;-60
2022/10/19 01:41:57;;;;;;;7.93;3.50;;;8.40;99.90;;;;;;5055529;28;20052;-60
2022/10/19 01:44:49;;;;;;;10.32;3.40;;;8.90;99.90;;;;;;5054233;28;20048;-60
2022/10/19 01:47:23;;;;;;;12.85;3.60;;;8.40;99.90;;;;;;5055747;28;20113;-60
2022/10/19 01:49:57;;;;;;;15.75;4.22;;;9.00;99.90;;;;;;5055565;28;20041;-60
2022/10/19 01:52:25;;;;;;;11.05;3.88;;;9.10;99.90;;;;;;5055039;28;20053;-60
2022/10/19 01:54:55;;;;;;;11.13;4.03;;;9.10;99.90;;;;;;5054773;28;20523;-60
2022/10/19 01:57:31;;;;;;;14.15;3.90;;;9.20;99.90;;;;;;5055507;28;20037;-60
2022/10/19 02:00:06;;;;;;;10.13;4.30;;;8.90;99.90;;;;;;5055687;28;20124;-60
2022/10/19 02:02:35;;;;;;;14.15;4.15;;;9.10;99.90;;;;;;5055217;28;20045;-60
2022/10/19 02:05:02;;;;;;;14.55;4.07;;;9.10;99.90;;;;;;5055081;28;20033;-66
2022/10/19 02:07:29;;;;;;;9.68;4.05;;;8.80;99.90;;;;;;5055364;28;20098;-66
2022/10/19 02:09:56;;;;;;;13.93;4.10;;;9.50;99.90;;;;;;5055297;28;20079;-67
2022/10/19 02:12:24;;;;;;;15.68;4.28;;;9.40;99.90;;;;;;5055219;28;20051;-67
2022/10/19 02:14:57;;;;;;;15.55;4.25;;;9.40;99.90;;;;;;5055497;28;20048;-67
2022/10/19 02:17:30;;;;;;;10.57;3.83;;;9.50;99.90;;;;;;5054912;28;20123;-67
2022/10/19 02:19:57;;;;;;;10.43;3.63;;;9.40;99.90;;;;;;5055215;28;20040;-67
2022/10/19 02:22:23;;;;;;;11.02;3.47;;;9.70;99.90;;;;;;5055006;28;20063;-67
2022/10/19 02:24:51;;;;;;;14.65;3.15;;;9.50;99.90;;;;;;5054889;28;20116;-67
2022/10/19 02:27:17;;;;;;;8.20;3.20;;;9.40;99.90;;;;;;5055227;28;20416;-67
2022/10/19 02:29:45;;;;;;;11.00;3.20;;;9.50;99.90;;;;;;5054664;28;20049;-68
2022/10/19 02:32:12;;;;;;;10.88;2.85;;;10.10;99.90;;;;;;5054511;28;20052;-66
2022/10/19 02:34:38;;;;;;;11.40;3.70;;;9.40;99.90;;;;;;5054802;28;20098;-66
2022/10/19 02:37:05;;;;;;;14.40;3.45;;;9.60;99.90;;;;;;5053758;28;20048;-67
2022/10/19 02:39:34;;;;;;;14.32;3.72;;;9.50;99.90;;;;;;5054441;28;20481;-67
2022/10/19 02:41:59;;;;;;;11.98;3.58;;;9.60;99.90;;;;;;5054389;28;20086;-60
2022/10/19 02:44:41;;;;;;;11.52;3.50;;;9.50;99.90;;;;;;5054497;28;20099;-60
2022/10/19 02:47:16;;;;;;;17.27;3.70;;;9.00;99.90;;;;;;5054370;28;20493;-60
2022/10/19 02:49:43;;;;;;;20.73;3.67;;;9.60;99.90;;;;;;5054403;28;20041;-60
2022/10/19 02:52:12;;;;;;;10.85;3.08;;;9.40;99.90;;;;;;5054364;28;20041;-60
2022/10/19 02:54:42;;;;;;;12.40;3.42;;;9.60;99.90;;;;;;5054301;28;20051;-60
2022/10/19 02:57:22;;;;;;;10.57;3.20;;;9.60;99.90;;;;;;5054066;28;20084;-60
2022/10/19 02:59:49;;;;;;;10.77;3.42;;;9.40;99.90;;;;;;5054498;28;20044;-60
2022/10/19 03:02:18;;;;;;;8.45;3.17;;;9.50;99.90;;;;;;5054085;28;20033;-60
2022/10/19 03:04:47;;;;;;;10.93;3.22;;;9.70;99.90;;;;;;5054012;28;20124;-60
2022/10/19 03:07:19;;;;;;;11.02;3.25;;;9.60;99.90;;;;;;5053422;28;20041;-60
2022/10/19 03:09:45;;;;;;;12.02;2.88;;;9.40;99.90;;;;;;5053915;28;20049;-60
2022/10/19 03:12:13;;;;;;;12.25;3.30;;;9.20;99.90;;;;;;5053916;28;20053;-60
2022/10/19 03:14:39;;;;;;;8.05;2.90;;;9.80;99.90;;;;;;5053905;28;20041;-60
2022/10/19 03:17:05;;;;;;;18.52;3.35;;;;;;;;;;5053704;28;20551;-60
2022/10/19 03:19:34;;;;;;;18.02;3.40;;;9.40;99.90;;;;;;5053744;28;20045;-60
2022/10/19 03:22:00;;;;;;;9.85;3.42;;;9.70;99.90;;;;;;5053743;28;20079;-60
2022/10/19 03:24:29;;;;;;;12.95;2.85;;;9.80;99.90;;;;;;5053228;28;20080;-60
2022/10/19 03:26:55;;;;;;;7.97;3.00;;;;;;;;;;5053887;28;20437;-60
2022/10/19 03:29:24;;;;;;;13.05;3.17;;;9.70;99.90;;;;;;5053693;28;20405;-60
2022/10/19 03:31:56;;;;;;;11.32;3.00;;;9.60;99.90;;;;;;5053940;28;20048;-60
2022/10/19 03:34:22;;;;;;;9.45;2.75;;;9.50;99.90;;;;;;5053562;28;20041;-60
2022/10/19 03:36:49;;;;;;;18.00;3.45;;;9.70;99.90;;;;;;5052608;28;20135;-60
2022/10/19 03:39:18;;;;;;;14.32;3.10;;;9.90;99.90;;;;;;5053651;28;20131;-60
2022/10/19 03:41:48;;;;;;;13.18;3.00;;;10.00;99.90;;;;;;5053558;28;20120;-60
2022/10/19 03:44:14;;;;;;;20.75;3.38;;;9.50;99.90;;;;;;5053409;28;20539;-60
2022/10/19 03:46:40;;;;;;;11.35;2.88;;;;;;;;;;5053553;28;20037;-60
2022/10/19 03:49:06;;;;;;;13.55;3.08;;;9.60;99.90;;;;;;5053379;28;20531;-60
2022/10/19 03:51:36;;;;;;;13.35;3.00;;;9.30;99.90;;;;;;5053588;28;20049;-60
2022/10/19 03:54:07;;;;;;;10.48;2.72;;;9.30;99.90;;;;;;5053546;28;20065;-60
2022/10/19 03:56:34;;;;;;;6.32;2.63;;;9.20;99.90;;;;;;5053373;28;20045;-60
2022/10/19 03:59:02;;;;;;;9.57;2.80;;;9.10;99.90;;;;;;5053565;28;20037;-60
2022/10/19 04:01:38;;;;;;;12.77;2.97;;;9.60;99.90;;;;;;5053231;28;20033;-66
2022/10/19 04:04:05;;;;;;;;;;;9.20;99.90;;;;;;5053446;28;20112;-66
2022/10/19 04:06:37;;;;;;;13.23;3.03;;;9.20;99.90;;;;;;5053438;28;20041;-66
2022/10/19 04:09:04;;;;;;;14.50;2.65;;;9.10;99.90;;;;;;5053165;28;20044;-67
2022/10/19 04:11:32;;;;;;;15.30;2.80;;;9.10;99.90;;;;;;5053112;28;20051;-67
2022/10/19 04:13:58;;;;;;;15.45;2.60;;;;;;;;;;5053049;28;20096;-67
2022/10/19 04:16:25;;;;;;;10.02;2.88;;;9.00;99.90;;;;;;5052836;28;20052;-67
2022/10/19 04:18:55;;;;;;;9.32;2.65;;;9.10;99.90;;;;;;5054902;28;20067;-67
2022/10/19 04:21:33;;;;;;;13.57;3.38;;;9.10;99.90;;;;;;5055988;28;20083;-67
2022/10/19 04:24:11;;;;;;;10.03;3.17;;;9.20;99.90;;;;;;5057290;28;20033;-67
2022/10/19 04:26:42;;;;;;;10.68;2.97;;;9.30;99.90;;;;;;5056977;28;20270;-67
2022/10/19 04:29:11;;;;;;;9.80;2.97;;;8.30;99.90;;;;;;5055633;28;20132;-66
2022/10/19 04:31:38;;;;;;;12.65;3.22;;;9.10;99.90;;;;;;5056908;28;20493;-68
2022/10/19 04:34:05;;;;;;;16.50;2.85;;;9.30;99.90;;;;;;5056532;28;20091;-68
2022/10/19 04:36:31;;;;;;;10.60;3.05;;;9.30;99.90;;;;;;5056601;28;20045;-68
2022/10/19 04:39:00;;;;;;;10.02;2.85;;;;;;;;;;5056315;28;20546;-68
2022/10/19 04:41:26;;;;;;;14.20;3.25;;;9.10;99.90;;;;;;5056835;28;20484;-67
2022/10/19 04:43:58;;;;;;;11.50;3.10;;;9.40;99.90;;;;;;5038591;28;20044;-67
2022/10/19 04:46:25;;;;;;;7.80;2.72;;;9.20;99.90;;;;;;5056486;28;20041;-68
2022/10/19 04:48:52;;;;;;;9.65;2.45;;;8.90;99.90;;;;;;5056485;28;20082;-68
2022/10/19 04:51:20;;;;;;;11.32;3.45;;;9.10;99.90;;;;;;5055253;28;20045;-67
2022/10/19 04:53:47;;;;;;;13.00;2.80;;;9.80;99.90;;;;;;5055072;28;20037;-67
2022/10/19 04:56:22;;;;;;;9.50;2.75;;;9.30;99.90;;;;;;5056382;28;20045;-67
2022/10/19 04:58:49;;;;;;;10.88;3.28;;;9.90;99.90;;;;;;5056565;28;20397;-67
2022/10/19 05:01:20;;;;;;;7.22;2.75;;;9.10;99.90;;;;;;5056377;28;20081;-69
2022/10/19 05:03:54;;;;;;;6.35;2.55;;;9.20;99.90;;;;;;5056452;28;20041;-67
2022/10/19 05:06:20;;;;;;;7.50;2.30;;;9.00;99.90;;;;;;5056087;28;20041;-67
2022/10/19 05:08:49;;;;;;;14.23;2.90;;;9.20;99.90;;;;;;5056372;28;20044;-68
2022/10/19 05:11:26;;;;;;;8.77;2.80;;;9.20;99.90;;;;;;5055321;28;20459;-67
2022/10/19 05:13:52;;;;;;;8.02;2.28;;;9.00;99.90;;;;;;5056123;28;20401;-67
2022/10/19 05:16:21;;;;;;;7.97;2.42;;;9.10;99.90;;;;;;5056023;28;20449;-62
2022/10/19 05:18:57;;;;;;;17.15;3.20;;;9.30;99.90;;;;;;5056234;28;20056;-61
2022/10/19 05:21:26;;;;;;;10.10;2.65;;;8.30;99.90;;;;;;5056044;28;20397;-68
2022/10/19 05:23:54;;;;;;;8.75;2.80;;;9.70;99.90;;;;;;5038171;28;20082;-67
2022/10/19 05:26:22;;;;;;;15.27;3.40;;;9.20;99.90;;;;;;5056096;28;20049;-61
2022/10/19 05:28:55;;;;;;;13.93;3.08;;;9.00;99.90;;;;;;5054065;28;20041;-61
2022/10/19 05:31:33;;;;;;;13.10;2.90;;;9.00;99.90;;;;;;5054526;28;20357;-60
2022/10/19 05:34:03;;;;;;;6.95;3.00;;;9.20;99.90;;;;;;5055980;28;20397;-60
2022/10/19 05:36:38;;;;;;;13.15;2.78;;;9.10;99.90;;;;;;5054476;28;20082;-61
2022/10/19 05:39:11;;;;;;;13.27;2.58;;;8.90;99.90;;;;;;5055210;28;20179;-60
2022/10/19 05:41:37;;;;;;;13.30;2.85;;;9.10;99.90;;;;;;5055592;28;20389;-60
2022/10/19 05:44:06;;;;;;;14.60;2.85;;;9.60;99.90;;;;;;5055734;28;20049;-60
2022/10/19 05:46:35;;;;;;;13.82;2.92;;;9.40;99.90;;;;;;5054281;28;20043;-60
2022/10/19 05:49:06;;;;;;;12.30;2.53;;;9.40;99.90;;;;;;5055589;28;20041;-60
2022/10/19 05:51:32;;;;;;;16.88;2.72;;;9.40;99.90;;;;;;5055356;28;20037;-60
2022/10/19 05:54:00;;;;;;;14.02;2.65;;;9.00;99.90;;;;;;5055385;28;20120;-60
2022/10/19 05:56:30;;;;;;;12.55;2.92;;;9.20;99.90;;;;;;5053735;28;20032;-60
2022/10/19 05:59:01;;;;;;;15.68;2.88;;;9.50;99.90;;;;;;5055472;28;20087;-60
2022/10/19 06:01:29;;;;;;;15.30;2.80;;;9.10;99.90;;;;;;5054316;28;20354;-60
2022/10/19 06:03:58;;;;;;;8.93;2.70;;;9.20;99.90;;;;;;5055194;28;20436;-60
2022/10/19 06:06:26;;;;;;;13.93;2.50;;;9.10;99.90;;;;;;5054976;28;20424;-60
2022/10/19 06:08:55;;;;;;;12.90;2.60;;;9.10;99.90;;;;;;5053655;28;20069;-60
2022/10/19 06:11:25;;;;;;;11.02;2.60;;;9.10;99.90;;;;;;5055291;28;20035;-60
2022/10/19 06:13:54;;;;;;;12.13;2.55;;;9.20;99.90;;;;;;5054848;28;20497;-60
2022/10/19 06:16:22;;;;;;;14.82;2.65;;;9.20;99.90;;;;;;5054825;28;20048;-60
2022/10/19 06:18:48;;;;;;;13.18;3.53;;;9.60;99.90;;;;;;5054807;28;20045;-60
2022/10/19 06:21:17;;;;;;;10.82;3.17;;;9.50;99.90;;;;;;5054869;28;20041;-60
2022/10/19 06:23:43;;;;;;;13.27;2.40;;;9.50;99.90;;;;;;5054895;28;20370;-60
2022/10/19 06:26:12;;;;;;;10.73;2.38;;;9.30;99.90;;;;;;5055055;28;20033;-67
2022/10/19 06:28:44;;;;;;;13.85;2.78;;;8.50;99.90;;;;;;5055074;28;20040;-67
2022/10/19 06:31:13;;;;;;;10.30;2.63;;;9.60;99.90;;;;;;5053668;28;20145;-67
2022/10/19 06:33:48;;;;;;;12.10;2.10;;;9.30;99.90;;;;;;5053472;28;20123;-67
2022/10/19 06:36:17;;;;;;;12.40;2.40;;;9.60;99.90;;;;;;5054678;28;20438;-67
2022/10/19 06:38:43;;;;;;;13.30;2.33;;;9.60;99.90;;;;;;5054633;28;20036;-67
2022/10/19 06:41:12;;;;;;;14.30;2.33;;;9.50;99.90;;;;;;5053533;28;20501;-68
2022/10/19 06:43:42;;;;;;;8.70;2.30;;;9.40;99.90;;;;;;5051972;28;20501;-67
2022/10/19 06:46:16;;;;;;;15.52;2.53;;;9.90;99.90;;;;;;5054341;28;20041;-68
2022/10/19 06:48:59;;;;;;;9.88;2.42;;;9.60;99.90;;;;;;5054561;28;20037;-67
2022/10/19 06:51:29;;;;;;;21.75;2.42;;;9.60;99.90;;;;;;5054113;28;20037;-67
2022/10/19 06:53:55;;;;;;;8.38;2.35;;;9.50;99.90;;;;;;5052965;28;20489;-67
2022/10/19 06:56:24;;;;;;;11.25;2.45;;;9.80;99.90;;;;;;5053521;28;20093;-67
2022/10/19 06:58:59;;;;;;;20.55;2.80;;;10.00;99.90;;;;;;5053633;28;20493;-67
2022/10/19 07:01:25;;;;;;;18.70;3.28;;;;;;;;;;5045489;28;20068;-66
2022/10/19 07:03:54;;;;;;;10.13;2.25;;;9.90;99.90;;;;;;5044243;28;20041;-67
2022/10/19 07:06:20;;;;;;;14.38;2.83;;;9.80;99.90;;;;;;5052786;28;20045;-67
2022/10/19 07:08:47;;;;;;;12.70;2.67;;;10.40;99.90;;;;;;5052925;28;20087;-67
2022/10/19 07:11:16;;;;;;;15.57;3.13;;;9.90;99.90;;;;;;5051738;28;20048;-67
2022/10/19 07:13:46;;;;;;;14.80;2.85;;;9.50;99.90;;;;;;5044663;28;20520;-68
2022/10/19 07:16:17;;;;;;;14.73;2.60;;;10.10;99.90;;;;;;5046906;28;20558;-67
2022/10/19 07:18:43;;;;;;;19.30;3.65;;;;;;;;;;5052757;28;20511;-67
2022/10/19 07:21:15;;;;;;;15.95;3.22;;;10.80;99.90;;;;;;5051761;28;20503;-67
2022/10/19 07:23:42;;;;;;;23.35;3.63;;;10.30;99.90;;;;;;5053477;28;20094;-68
2022/10/19 07:26:12;;;;;;;21.67;3.45;;;10.50;99.90;;;;;;5053433;28;20124;-68
2022/10/19 07:28:44;;;;;;;22.25;3.15;;;9.90;99.90;;;;;;5053714;28;20443;-67
2022/10/19 07:31:13;;;;;;;15.32;3.28;;;10.90;99.90;;;;;;5053264;28;20061;-68
2022/10/19 07:33:42;;;;;;;18.13;3.63;;;10.50;99.90;;;;;;5052367;28;20041;-60
2022/10/19 07:36:12;;;;;;;18.35;3.60;;;10.70;99.90;;;;;;5052034;28;20048;-60
2022/10/19 07:38:41;;;;;;;15.02;3.58;;;10.70;99.90;;;;;;5053337;28;20083;-60
2022/10/19 07:41:15;;;;;;;18.75;2.97;;;10.80;99.90;;;;;;5053701;28;20041;-60
2022/10/19 07:43:43;;;;;;;10.82;3.55;;;10.90;99.90;;;;;;5053379;28;20073;-60
2022/10/19 07:46:20;;;;;;;18.48;3.72;;;11.10;99.90;;;;;;5052377;28;20045;-60
2022/10/19 07:48:47;;;;;;;17.73;3.53;;;;;;;;;;5036012;28;20509;-60
2022/10/19 07:51:16;;;;;;;13.40;3.17;;;10.90;99.90;;;;;;5053141;28;20045;-60
2022/10/19 07:53:43;;;;;;;22.55;3.30;;;11.30;99.90;;;;;;5052485;28;20503;-61
2022/10/19 07:56:21;;;;;;;18.15;3.10;;;11.30;99.90;;;;;;5052169;28;20124;-60
2022/10/19 07:58:50;;;;;;;13.85;3.13;;;11.50;99.90;;;;;;5053328;28;20401;-60
2022/10/19 08:01:21;;;;;;;14.90;3.38;;;12.50;99.90;;;;;;5053043;28;20392;-60
2022/10/19 08:03:47;;;;;;;18.25;3.05;;;;;;;;;;5051939;28;20037;-60
2022/10/19 08:06:18;;;;;;;13.43;3.10;;;11.60;99.90;;;;;;5053118;28;20041;-60
2022/10/19 08:08:47;;;;;;;23.95;3.13;;;11.60;99.90;;;;;;5052926;28;20071;-60
2022/10/19 08:11:29;;;;;;;15.05;2.70;;;11.90;99.90;;;;;;5052936;28;20041;-60
2022/10/19 08:14:01;;;;;;;11.68;3.03;;;;;;;;;;5051631;28;20049;-60
2022/10/19 08:16:43;;;;;;;16.58;2.67;;;11.80;99.90;;;;;;5051779;28;20044;-60
2022/10/19 08:19:13;;;;;;;18.23;3.33;;;11.90;99.90;;;;;;5051656;28;20053;-60
2022/10/19 08:21:41;;;;;;;17.85;3.17;;;12.00;99.90;;;;;;5053214;28;20044;-61
2022/10/19 08:24:07;;;;;;;15.93;2.90;;;;;;;;;;5052895;28;20079;-60
2022/10/19 08:26:36;;;;;;;17.17;2.78;;;12.40;99.90;;;;;;5052580;28;20076;-60
2022/10/19 08:29:20;;;;;;;17.80;3.20;;;12.10;99.90;;;;;;5052348;28;20033;-60
2022/10/19 08:31:49;;;;;;;16.60;3.28;;;12.30;99.90;;;;;;5052651;28;20452;-60
2022/10/19 08:34:15;;;;;;;19.02;3.33;;;;;;;;;;5051830;28;20052;-60
2022/10/19 08:36:41;;;;;;;14.82;3.45;;;12.60;99.90;;;;;;5052727;28;20092;-60
2022/10/19 08:39:11;;;;;;;14.32;3.42;;;12.10;99.90;;;;;;5052282;28;20052;-60
2022/10/19 08:42:23;;;;;;;13.20;2.75;;;12.30;99.90;;;;;;5036674;28;20049;-60
2022/10/19 08:45:17;;;;;;;9.65;2.35;;;12.50;99.90;;;;;;5030435;28;20034;-60
2022/10/19 08:48:16;;;;;;;14.05;2.70;;;12.40;99.90;;;;;;5047124;28;20046;-60
2022/10/19 08:50:43;;;;;;;15.55;2.90;;;12.50;99.90;;;;;;5029461;28;20043;-60
2022/10/19 08:53:19;;;;;;;12.48;2.45;;;12.30;99.90;;;;;;5029803;28;20088;-60
2022/10/19 08:56:01;;;;;;;16.30;3.63;;;12.70;99.90;;;;;;5029389;28;20547;-60
2022/10/19 08:58:54;;;;;;;13.25;2.45;;;12.80;99.90;;;;;;5030434;28;20053;-60
2022/10/19 09:02:15;;;;;;;16.17;2.65;;;12.20;99.90;;;;;;5030678;28;20121;-61
2022/10/19 09:04:49;;;;;;;18.50;2.55;;;12.70;99.90;;;;;;4951656;28;20058;-60
2022/10/19 09:07:26;;;;;;;12.70;2.47;;;12.70;99.90;;;;;;4955485;29;20051;-60
2022/10/19 09:10:13;;;;;;;14.35;3.00;;;12.80;99.90;;;;;;4956182;29;20051;-60
2022/10/19 09:13:06;;;;;;;12.38;2.47;;;12.90;99.90;;;;;;4956022;29;20158;-60
2022/10/19 09:15:45;;;;;;;12.18;2.72;;;12.90;99.90;;;;;;4955767;29;20507;-61
2022/10/19 09:18:22;;;;;;;13.82;2.53;;;12.70;99.90;;;;;;4955948;29;20062;-61
2022/10/19 09:20:53;;;;;;;14.13;2.55;;;13.00;99.90;;;;;;4955913;28;20055;-68
2022/10/19 09:23:31;;;;;;;9.55;2.05;;;13.50;99.90;;;;;;4955911;29;20043;-68
2022/10/19 09:25:59;;;;;;;12.20;2.13;;;13.10;99.90;;;;;;4954861;29;20055;-68
2022/10/19 09:28:29;;;;;;;15.40;2.80;;;13.10;99.90;;;;;;4955638;29;20055;-68
2022/10/19 09:30:57;;;;;;;11.73;2.38;;;13.50;99.90;;;;;;4955257;28;20051;-68
2022/10/19 09:33:33;;;;;;;12.52;2.47;;;13.00;99.90;;;;;;4954948;29;20478;-68
2022/10/19 09:35:59;;;;;;;;;;;13.30;99.90;;;;;;4955956;28;20507;-68
2022/10/19 09:38:30;;;;;;;12.40;2.70;;;13.30;99.90;;;;;;4955487;29;19918;-68
2022/10/19 09:41:04;;;;;;;9.57;2.25;;;13.50;99.90;;;;;;4997103;28;20065;-69
2022/10/19 09:43:30;;;;;;;13.70;2.72;;;13.00;99.90;;;;;;5034327;28;20041;-69
2022/10/19 09:46:27;;;;;;;13.90;2.42;;;13.10;99.90;;;;;;5035864;28;20110;-69
2022/10/19 09:49:01;;;;;;;10.95;2.63;;;13.40;99.90;;;;;;5035636;28;20044;-68
2022/10/19 09:51:51;;;;;;;7.55;2.38;;;13.20;99.90;;;;;;5066788;28;20041;-69
2022/10/19 09:54:43;;;;;;;8.95;2.00;;;13.20;99.90;;;;;;5035427;28;20041;-68
2022/10/19 09:57:20;;;;;;;11.30;2.50;;;13.60;99.90;;;;;;5034134;28;20132;-68
2022/10/19 09:59:51;;;;;;;8.50;2.15;;;13.60;99.90;;;;;;5035462;28;20124;-60
2022/10/19 10:02:28;;;;;;;7.65;2.13;;;13.40;99.90;;;;;;5035311;28;20397;-60
2022/10/19 10:05:06;;;;;;;9.93;2.22;;;13.10;99.90;;;;;;5035900;28;20050;-61
2022/10/19 10:07:38;;;;;;;11.48;2.40;;;13.60;99.90;;;;;;5035343;28;20405;-61
2022/10/19 10:10:28;;;;;;;20.33;2.40;;;13.50;99.90;;;;;;5035144;28;20048;-61
2022/10/19 10:12:54;;;;;;;6.68;2.00;;;13.50;99.90;;;;;;5034526;28;20464;-61
2022/10/19 10:15:25;;;;;;;8.05;2.25;;;13.60;99.90;;;;;;5035237;28;20048;-61
2022/10/19 10:17:51;;;;;;;9.05;2.13;;;13.50;99.90;;;;;;5034623;28;20099;-61
2022/10/19 10:20:17;;;;;;;15.02;2.50;;;13.20;99.90;;;;;;5034992;28;20107;-61
2022/10/19 10:22:58;;;;;;;14.43;2.40;;;13.50;99.90;;;;;;5034953;28;20124;-60
2022/10/19 10:25:27;;;;;;;10.38;2.33;;;13.20;99.90;;;;;;5035280;28;20520;-61
2022/10/19 10:27:56;;;;;;;12.30;2.63;;;13.60;99.90;;;;;;5034784;28;20124;-61
2022/10/19 10:30:24;;;;;;;11.65;2.20;;;13.30;99.90;;;;;;5034606;28;20132;-61
2022/10/19 10:32:54;;;;;;;14.77;2.90;;;13.90;99.90;;;;;;5034726;28;20049;-61
2022/10/19 10:35:30;;;;;;;12.13;2.47;;;13.80;99.90;;;;;;5034677;28;20033;-61
2022/10/19 10:38:06;;;;;;;11.80;2.97;;;13.80;99.90;;;;;;5034866;28;20045;-61
2022/10/19 10:40:50;;;;;;;14.00;2.57;;;13.70;99.90;;;;;;5034846;28;20045;-61
2022/10/19 10:43:19;;;;;;;13.35;2.47;;;13.80;99.90;;;;;;5034776;28;20046;-61
2022/10/19 10:45:51;;;;;;;10.07;2.58;;;13.60;99.90;;;;;;5034646;28;20073;-61
2022/10/19 10:48:39;;;;;;;12.25;2.47;;;13.80;99.90;;;;;;5033569;28;20131;-61
2022/10/19 10:51:19;;;;;;;8.48;1.92;;;14.30;99.90;;;;;;5034686;28;20045;-61
2022/10/19 10:53:45;;;;;;;16.17;2.22;;;13.80;99.90;;;;;;5034474;28;20045;-60
2022/10/19 10:56:23;;;;;;;8.32;2.30;;;13.90;99.90;;;;;;5034687;28;20053;-60
2022/10/19 10:58:57;;;;;;;13.55;2.40;;;13.80;99.90;;;;;;5034385;28;20478;-61
2022/10/19 11:01:35;;;;;;;9.23;2.25;;;14.50;99.90;;;;;;5034761;28;20056;-61
2022/10/19 11:04:09;;;;;;;7.80;2.40;;;14.20;99.90;;;;;;5034337;28;20099;-61
2022/10/19 11:06:42;;;;;;;11.95;2.22;;;14.10;99.90;;;;;;5034276;28;20038;-61
2022/10/19 11:09:10;;;;;;;12.32;2.58;;;14.40;99.90;;;;;;5034419;28;20033;-61
2022/10/19 11:11:39;;;;;;;15.10;2.25;;;13.90;99.90;;;;;;5034097;28;20461;-61
2022/10/19 11:14:43;;;;;;;10.77;2.05;;;14.00;99.90;;;;;;5066141;28;20038;-61
2022/10/19 11:17:25;;;;;;;9.32;2.22;;;14.00;99.90;;;;;;5030823;28;20139;-61
2022/10/19 11:19:52;;;;;;;10.75;2.53;;;13.90;99.90;;;;;;5032018;28;20053;-61
2022/10/19 11:22:45;;;;;;;12.07;2.10;;;14.10;99.90;;;;;;5031623;28;20045;-61
2022/10/19 11:25:52;;;;;;;11.68;2.17;;;13.70;99.90;;;;;;5031768;28;20088;-61
2022/10/19 11:28:47;;;;;;;10.35;2.30;;;13.70;99.90;;;;;;5018337;28;20053;-61
2022/10/19 11:31:34;;;;;;;9.70;2.40;;;13.70;99.90;;;;;;5031405;28;20060;-61
2022/10/19 11:34:02;;;;;;;10.30;2.17;;;;;;;;;;5030934;28;20045;-61
2022/10/19 11:36:56;;;;;;;10.63;2.40;;;13.50;99.90;;;;;;5031468;28;20081;-61
2022/10/19 11:39:40;;;;;;;6.93;2.28;;;13.50;99.90;;;;;;5031419;28;20191;-61
2022/10/19 11:42:18;;;;;;;11.02;2.25;;;13.80;99.90;;;;;;5031239;28;20053;-61
2022/10/19 11:45:14;;;;;;;11.85;2.72;;;13.90;99.90;;;;;;5031474;28;20041;-61
2022/10/19 11:48:21;;;;;;;13.15;2.22;;;14.20;99.90;;;;;;5029374;28;20583;-61
2022/10/19 11:51:07;;;;;;;9.35;2.25;;;14.30;99.90;;;;;;4953264;29;20122;-61
2022/10/19 11:53:33;;;;;;;;;;;14.50;99.90;;;;;;4970457;28;20138;-61
2022/10/19 11:56:01;;;;;;;11.05;2.55;;;14.70;99.90;;;;;;4972522;28;19961;-61
2022/10/19 11:58:27;;;;;;;12.40;2.72;;;15.40;99.90;;;;;;4972408;28;20105;-63
2022/10/19 12:00:53;;;;;;;7.65;2.00;;;;;;;;;;4972211;28;20403;-63
2022/10/19 12:03:51;;;;;;;13.85;2.50;;;14.90;99.90;;;;;;4972326;28;20050;-61
2022/10/19 12:06:37;;;;;;;9.40;2.60;;;14.50;99.90;;;;;;4957590;28;20145;-61
2022/10/19 12:09:21;;;;;;;9.43;2.65;;;14.60;99.90;;;;;;4972261;28;20082;-61
2022/10/19 12:12:29;;;;;;;10.52;2.60;;;14.80;99.90;;;;;;4972326;28;20050;-61
2022/10/19 12:15:02;;;;;;;10.05;2.50;;;13.50;99.90;;;;;;4972112;28;20496;-61
2022/10/19 12:17:32;;;;;;;14.18;2.60;;;14.50;99.90;;;;;;4972295;28;20051;-61
2022/10/19 12:20:04;;;;;;;9.77;2.78;;;14.40;99.90;;;;;;4972268;28;20483;-61
2022/10/19 12:22:30;;;;;;;13.85;2.70;;;14.20;99.90;;;;;;4972041;28;20047;-61
2022/10/19 12:25:00;;;;;;;12.27;3.08;;;13.90;99.90;;;;;;4972213;28;20046;-61
2022/10/19 12:27:35;;;;;;;13.23;2.92;;;14.10;99.90;;;;;;5001714;28;20072;-61
2022/10/19 12:30:07;;;;;;;16.27;2.75;;;14.10;99.90;;;;;;5032642;28;20053;-61
2022/10/19 12:32:48;;;;;;;9.23;2.60;;;14.10;99.90;;;;;;5033379;28;20453;-61
2022/10/19 12:35:47;;;;;;;13.98;3.53;;;14.00;99.90;;;;;;5031928;28;20140;-61
2022/10/19 12:38:45;;;;;;;13.05;3.10;;;14.10;99.90;;;;;;5032764;28;20047;-61
2022/10/19 12:41:22;;;;;;;15.43;2.80;;;14.00;99.90;;;;;;5036754;28;20083;-61
2022/10/19 12:44:22;;;;;;;10.55;2.70;;;14.10;99.90;;;;;;5068714;28;20037;-61
2022/10/19 12:46:52;;;;;;;17.35;2.90;;;14.20;99.90;;;;;;5036864;28;20042;-61
2022/10/19 12:49:35;;;;;;;8.40;2.67;;;13.90;99.90;;;;;;5036789;28;20099;-61
2022/10/19 12:52:02;;;;;;;16.38;2.85;;;14.30;99.90;;;;;;5036877;28;20405;-61
2022/10/19 12:54:34;;;;;;;13.38;2.38;;;14.40;99.90;;;;;;5035415;28;20048;-61
2022/10/19 12:57:02;;;;;;;13.02;2.78;;;14.40;99.90;;;;;;5036606;28;20045;-61
2022/10/19 12:59:36;;;;;;;11.15;2.63;;;14.10;99.90;;;;;;5036622;28;20113;-61
2022/10/19 13:02:26;;;;;;;10.70;2.88;;;13.90;99.90;;;;;;5036694;28;20049;-61
2022/10/19 13:04:52;;;;;;;;;;;14.40;99.90;;;;;;5036785;28;20120;-61
2022/10/19 13:07:18;;;;;;;;;;;14.40;99.90;;;;;;5036691;28;19924;-61
2022/10/19 13:09:45;;;;;;;;;;;14.40;99.90;;;;;;5036635;28;19917;-61
2022/10/19 13:12:17;;;;;;;;;;;14.40;99.90;;;;;;5036679;28;19917;-61
2022/10/19 13:14:47;;;;;;;;;;;14.60;99.90;;;;;;5036756;28;19939;-61
2022/10/19 13:17:31;;;;;;;;;;;14.40;99.90;;;;;;5035329;28;19917;-61
2022/10/19 13:20:12;;;;;;;;;;;14.40;99.90;;;;;;5036627;28;19921;-61
2022/10/19 13:22:37;;;;;;;;;;;14.30;99.90;;;;;;5036352;28;20269;-61
2022/10/19 13:25:15;;;;;;;;;;;14.20;99.90;;;;;;5036642;28;19917;-61